Time;durP1;ratioP1;P1;durP2;ratioP2;P2;SDS_P1;SDS_P2;PMS_P1;PMS_P2;Temp;Humidity;BMP_temperature;BMP_pressure;BME280_temperature;BME280_humidity;BME280_pressure;Samples;Min_cycle;Max_cycle;Signal;HPM_P1;HPM_P2
2022/06/12 00:01:31;;;;;;;5.90;4.17;;;;;;;;;;5092585;28;20546;-73
2022/06/12 00:04:00;;;;;;;5.73;5.13;;;;;;;;;;5092421;28;20446;-73
2022/06/12 00:06:27;;;;;;;7.60;5.47;;;;;;;;;;5092370;28;20641;-73
2022/06/12 00:08:55;;;;;;;5.40;4.90;;;;;;;;;;5092416;28;20466;-73
2022/06/12 00:11:23;;;;;;;8.03;6.63;;;;;;;;;;5092310;28;20975;-73
2022/06/12 00:13:52;;;;;;;5.47;5.07;;;;;;;;;;5094546;28;20450;-73
2022/06/12 00:16:20;;;;;;;9.07;5.20;;;;;;;;;;5095736;28;20462;-73
2022/06/12 00:18:47;;;;;;;6.60;5.70;;;;;;;;;;5095856;28;21006;-72
2022/06/12 00:21:16;;;;;;;5.77;5.17;;;;;;;;;;5095616;28;20470;-73
2022/06/12 00:23:44;;;;;;;7.33;5.40;;;;;;;;;;5095530;28;20450;-73
2022/06/12 00:26:13;;;;;;;9.17;5.23;;;;;;;;;;5095660;28;20822;-73
2022/06/12 00:28:40;;;;;;;8.60;5.60;;;;;;;;;;5095737;28;20453;-73
2022/06/12 00:31:07;;;;;;;6.23;5.63;;;;;;;;;;5095671;28;20471;-72
2022/06/12 00:33:35;;;;;;;7.77;7.03;;;;;;;;;;5095608;28;20446;-73
2022/06/12 00:36:02;;;;;;;6.33;5.13;;;;;;;;;;5095586;28;20822;-72
2022/06/12 00:38:31;;;;;;;6.33;4.67;;;;;;;;;;5095254;28;20829;-72
2022/06/12 00:40:58;;;;;;;8.90;5.43;;;;;;;;;;5095363;28;20478;-73
2022/06/12 00:43:27;;;;;;;11.57;5.63;;;;;;;;;;5095429;28;20468;-72
2022/06/12 00:45:58;;;;;;;5.63;5.10;;;;;;;;;;5095279;28;20459;-72
2022/06/12 00:48:26;;;;;;;5.60;5.10;;;;;;;;;;5095224;28;20463;-72
2022/06/12 00:50:57;;;;;;;12.23;5.90;;;;;;;;;;5095126;28;20474;-72
2022/06/12 00:53:27;;;;;;;8.43;6.83;;;;;;;;;;5094814;28;20454;-73
2022/06/12 00:55:59;;;;;;;6.60;4.80;;;;;;;;;;5095286;28;20465;-72
2022/06/12 00:58:28;;;;;;;9.90;7.50;;;;;;;;;;5095317;28;21002;-72
2022/06/12 01:00:55;;;;;;;6.57;5.33;;;;;;;;;;5095003;28;20502;-72
2022/06/12 01:03:25;;;;;;;5.47;4.70;;;;;;;;;;5094847;28;20450;-73
2022/06/12 01:08:37;;;;;;;5.77;5.17;;;;;;;;;;5095297;28;20426;-72
2022/06/12 01:11:08;;;;;;;5.20;4.80;;;;;;;;;;5094646;28;20477;-72
2022/06/12 01:13:38;;;;;;;6.40;5.57;;;;;;;;;;5094699;28;20455;-73
2022/06/12 01:16:06;;;;;;;9.37;5.40;;;;;;;;;;5094794;28;20824;-72
2022/06/12 01:18:36;;;;;;;5.10;4.70;;;;;;;;;;5094590;28;20490;-72
2022/06/12 01:21:17;;;;;;;5.10;4.70;;;;;;;;;;5094646;28;20475;-72
2022/06/12 01:24:03;;;;;;;5.50;5.00;;;;;;;;;;5094274;28;20455;-73
2022/06/12 01:26:48;;;;;;;6.33;5.30;;;;;;;;;;5094577;28;20446;-72
2022/06/12 01:29:20;;;;;;;7.07;5.63;;;;;;;;;;5094413;28;20940;-72
2022/06/12 01:31:51;;;;;;;6.10;4.60;;;;;;;;;;5094487;28;20455;-72
2022/06/12 01:34:33;;;;;;;11.63;5.00;;;;;;;;;;5094275;28;20883;-73
2022/06/12 01:37:10;;;;;;;6.97;5.33;;;;;;;;;;5092311;28;20967;-72
2022/06/12 01:39:42;;;;;;;5.17;4.67;;;;;;;;;;5094288;28;20857;-72
2022/06/12 01:42:13;;;;;;;5.83;5.30;;;;;;;;;;5094175;28;20967;-72
2022/06/12 01:44:46;;;;;;;5.73;4.97;;;;;;;;;;5094102;28;20936;-72
2022/06/12 01:47:19;;;;;;;5.20;4.53;;;;;;;;;;5094073;28;20454;-72
2022/06/12 01:49:50;;;;;;;5.43;4.93;;;;;;;;;;5094233;28;20462;-72
2022/06/12 01:52:22;;;;;;;6.00;5.40;;;;;;;;;;5093636;28;20451;-72
2022/06/12 01:54:52;;;;;;;8.53;4.27;;;;;;;;;;5093847;28;20845;-72
2022/06/12 01:57:22;;;;;;;5.83;5.33;;;;;;;;;;5094009;28;20458;-72
2022/06/12 01:59:53;;;;;;;7.93;4.87;;;;;;;;;;5093842;28;20836;-72
2022/06/12 02:02:25;;;;;;;4.83;4.30;;;;;;;;;;5093766;28;20459;-72
2022/06/12 02:04:56;;;;;;;5.17;4.77;;;;;;;;;;5093883;28;20474;-72
2022/06/12 02:07:25;;;;;;;6.70;5.40;;;;;;;;;;5093760;28;20454;-72
2022/06/12 02:09:55;;;;;;;7.20;4.80;;;;;;;;;;5093789;28;20462;-72
2022/06/12 02:15:15;;;;;;;6.27;5.63;;;;;;;;;;5093467;28;20426;-72
2022/06/12 02:17:45;;;;;;;5.77;5.27;;;;;;;;;;5093722;28;20817;-72
2022/06/12 02:20:14;;;;;;;5.30;4.37;;;;;;;;;;5093360;28;20486;-72
2022/06/12 02:22:43;;;;;;;6.70;5.70;;;;;;;;;;5093462;28;20453;-72
2022/06/12 02:25:13;;;;;;;5.13;4.63;;;;;;;;;;5093204;28;20451;-72
2022/06/12 02:27:42;;;;;;;5.70;4.30;;;;;;;;;;5093456;28;20541;-72
2022/06/12 02:30:14;;;;;;;6.17;5.20;;;;;;;;;;5093362;28;20470;-72
2022/06/12 02:32:44;;;;;;;6.20;5.20;;;;;;;;;;5093352;28;20470;-72
2022/06/12 02:35:12;;;;;;;6.10;5.07;;;;;;;;;;5092568;28;20450;-72
2022/06/12 02:37:42;;;;;;;5.20;4.70;;;;;;;;;;5093400;28;20442;-72
2022/06/12 02:40:12;;;;;;;5.53;5.03;;;;;;;;;;5093119;28;21010;-72
2022/06/12 02:42:41;;;;;;;6.20;5.60;;;;;;;;;;5093625;28;20451;-72
2022/06/12 02:45:10;;;;;;;5.20;4.70;;;;;;;;;;5093053;28;20458;-72
2022/06/12 02:47:40;;;;;;;8.63;5.53;;;;;;;;;;5093075;28;20466;-72
2022/06/12 02:50:08;;;;;;;6.40;5.33;;;;;;;;;;5093134;28;20451;-72
2022/06/12 02:52:39;;;;;;;5.73;5.13;;;;;;;;;;5092644;28;20450;-72
2022/06/12 02:55:10;;;;;;;5.07;4.63;;;;;;;;;;5092802;28;20442;-72
2022/06/12 02:57:52;;;;;;;5.10;4.60;;;;;;;;;;5093134;28;20908;-72
2022/06/12 03:00:22;;;;;;;5.07;4.67;;;;;;;;;;5092834;28;21021;-72
2022/06/12 03:02:53;;;;;;;6.50;5.27;;;;;;;;;;5093069;28;20455;-72
2022/06/12 03:05:22;;;;;;;5.70;4.60;;;;;;;;;;5092657;28;20451;-72
2022/06/12 03:07:50;;;;;;;5.23;4.70;;;;;;;;;;5092869;28;20450;-72
2022/06/12 03:10:19;;;;;;;5.67;4.70;;;;;;;;;;5092734;28;20473;-72
2022/06/12 03:12:48;;;;;;;8.20;5.30;;;;;;;;;;5092870;28;20482;-72
2022/06/12 03:15:30;;;;;;;5.40;4.87;;;;;;;;;;5092462;28;20486;-72
2022/06/12 03:18:00;;;;;;;5.20;4.80;;;;;;;;;;5092926;28;20458;-72
2022/06/12 03:20:29;;;;;;;5.27;4.73;;;;;;;;;;5092641;28;20486;-72
2022/06/12 03:23:02;;;;;;;5.80;4.63;;;;;;;;;;5092761;28;20442;-72
2022/06/12 03:25:33;;;;;;;5.57;4.80;;;;;;;;;;5092650;28;20600;-72
2022/06/12 03:28:02;;;;;;;5.13;4.27;;;;;;;;;;5092887;28;20457;-72
2022/06/12 03:30:32;;;;;;;7.40;4.70;;;;;;;;;;5092716;28;20466;-72
2022/06/12 03:33:07;;;;;;;8.60;5.63;;;;;;;;;;5092712;28;20451;-72
2022/06/12 03:35:39;;;;;;;6.90;6.30;;;;;;;;;;5092363;28;20972;-72
2022/06/12 03:38:10;;;;;;;5.67;4.40;;;;;;;;;;5092442;28;20458;-72
2022/06/12 03:40:40;;;;;;;4.47;4.10;;;;;;;;;;5092417;28;20841;-72
2022/06/12 03:43:11;;;;;;;4.80;3.90;;;;;;;;;;5092534;28;20454;-72
2022/06/12 03:45:43;;;;;;;4.33;3.93;;;;;;;;;;5092506;28;20453;-72
2022/06/12 03:48:15;;;;;;;7.70;5.50;;;;;;;;;;5093882;28;20841;-72
2022/06/12 03:50:45;;;;;;;6.40;3.87;;;;;;;;;;5096299;28;20549;-72
2022/06/12 03:53:17;;;;;;;9.43;4.73;;;;;;;;;;5095809;28;20457;-72
2022/06/12 03:58:40;;;;;;;4.87;4.47;;;;;;;;;;5096195;28;20506;-72
2022/06/12 04:01:08;;;;;;;4.00;3.60;;;;;;;;;;5095992;28;20490;-72
2022/06/12 04:03:39;;;;;;;4.03;3.73;;;;;;;;;;5096115;28;20453;-73
2022/06/12 04:06:08;;;;;;;3.63;3.33;;;;;;;;;;5096424;28;20450;-73
2022/06/12 04:08:37;;;;;;;4.43;3.80;;;;;;;;;;5096205;28;20450;-73
2022/06/12 04:11:04;;;;;;;3.53;3.23;;;;;;;;;;5095981;28;20832;-73
2022/06/12 04:13:32;;;;;;;3.30;2.80;;;;;;;;;;5095816;28;20824;-73
2022/06/12 04:16:01;;;;;;;3.20;2.90;;;;;;;;;;5096021;28;20454;-73
2022/06/12 04:18:29;;;;;;;3.57;3.27;;;;;;;;;;5095968;28;20447;-73
2022/06/12 04:20:59;;;;;;;3.10;2.80;;;;;;;;;;5095910;28;20885;-73
2022/06/12 04:23:31;;;;;;;4.03;2.90;;;;;;;;;;5095871;28;20450;-73
2022/06/12 04:26:01;;;;;;;3.60;3.30;;;;;;;;;;5095953;28;20931;-73
2022/06/12 04:28:32;;;;;;;3.50;3.20;;;;;;;;;;5095786;28;20458;-73
2022/06/12 04:31:00;;;;;;;4.10;3.07;;;;;;;;;;5095746;28;20463;-73
2022/06/12 04:33:41;;;;;;;5.60;2.90;;;;;;;;;;5095764;28;20455;-73
2022/06/12 04:36:13;;;;;;;2.83;2.63;;;;;;;;;;5095594;28;20447;-73
2022/06/12 04:38:41;;;;;;;3.33;2.93;;;;;;;;;;5095640;28;20451;-73
2022/06/12 04:41:08;;;;;;;3.20;2.90;;;;;;;;;;5095205;28;20490;-73
2022/06/12 04:43:35;;;;;;;2.57;2.37;;;;;;;;;;5095650;28;20451;-73
2022/06/12 04:46:05;;;;;;;2.50;2.30;;;;;;;;;;5095290;28;20447;-73
2022/06/12 04:48:41;;;;;;;8.73;2.77;;;;;;;;;;5095081;28;20462;-73
2022/06/12 04:51:10;;;;;;;3.23;2.80;;;;;;;;;;5095175;28;20473;-73
2022/06/12 04:53:38;;;;;;;3.00;2.80;;;;;;;;;;5094691;28;20451;-73
2022/06/12 04:56:05;;;;;;;4.37;2.93;;;;;;;;;;5095229;28;20822;-73
2022/06/12 04:58:33;;;;;;;3.10;2.90;;;;;;;;;;5094711;28;20454;-73
2022/06/12 05:01:00;;;;;;;2.77;2.57;;;;;;;;;;5094931;28;21040;-73
2022/06/12 05:03:27;;;;;;;2.37;2.17;;;;;;;;;;5094724;28;20450;-74
2022/06/12 05:05:55;;;;;;;2.40;2.20;;;;;;;;;;5095107;28;20830;-74
2022/06/12 05:08:23;;;;;;;3.93;2.03;;;;;;;;;;5094939;28;20455;-74
2022/06/12 05:10:51;;;;;;;4.50;2.83;;;;;;;;;;5094848;28;20489;-74
2022/06/12 05:13:18;;;;;;;2.40;2.13;;;;;;;;;;5094732;28;20454;-74
2022/06/12 05:15:45;;;;;;;2.60;2.40;;;;;;;;;;5094667;28;20447;-74
2022/06/12 05:18:13;;;;;;;3.33;2.00;;;;;;;;;;5094668;28;20457;-74
2022/06/12 05:20:41;;;;;;;3.17;2.30;;;;;;;;;;5094539;28;20490;-74
2022/06/12 05:23:09;;;;;;;2.20;2.00;;;;;;;;;;5094531;28;20473;-74
2022/06/12 05:25:38;;;;;;;3.40;2.57;;;;;;;;;;5094412;28;20453;-74
2022/06/12 05:28:05;;;;;;;3.13;2.93;;;;;;;;;;5094331;28;20459;-74
2022/06/12 05:30:34;;;;;;;3.70;3.30;;;;;;;;;;5094623;28;20471;-74
2022/06/12 05:33:01;;;;;;;4.60;2.30;;;;;;;;;;5094573;28;20866;-74
2022/06/12 05:35:29;;;;;;;3.00;2.20;;;;;;;;;;5094171;28;20450;-74
2022/06/12 05:37:58;;;;;;;2.27;2.07;;;;;;;;;;5094503;28;20955;-74
2022/06/12 05:40:28;;;;;;;4.47;2.73;;;;;;;;;;5094151;28;20535;-74
2022/06/12 05:42:56;;;;;;;3.20;2.53;;;;;;;;;;5094255;28;20458;-74
2022/06/12 05:45:25;;;;;;;7.77;7.00;;;;;;;;;;5094074;28;20457;-74
2022/06/12 05:47:54;;;;;;;4.20;3.77;;;;;;;;;;5094140;28;20477;-74
2022/06/12 05:50:22;;;;;;;3.73;2.60;;;;;;;;;;5094098;28;20540;-74
2022/06/12 05:52:49;;;;;;;2.60;2.40;;;;;;;;;;5094358;28;20813;-74
2022/06/12 05:55:17;;;;;;;3.70;2.40;;;;;;;;;;5093881;28;20938;-74
2022/06/12 05:57:44;;;;;;;5.40;2.27;;;;;;;;;;5094169;28;20817;-74
2022/06/12 06:00:16;;;;;;;5.63;1.90;;;;;;;;;;5093801;28;20492;-74
2022/06/12 06:02:44;;;;;;;2.70;2.50;;;;;;;;;;5093985;28;20450;-74
2022/06/12 06:05:11;;;;;;;2.20;2.00;;;;;;;;;;5093938;28;20450;-74
2022/06/12 06:07:39;;;;;;;3.53;3.23;;;;;;;;;;5093847;28;20469;-74
2022/06/12 06:10:07;;;;;;;3.97;2.23;;;;;;;;;;5092942;28;20468;-74
2022/06/12 06:12:34;;;;;;;2.60;2.03;;;;;;;;;;5093681;28;20454;-74
2022/06/12 06:15:02;;;;;;;4.27;1.87;;;;;;;;;;5093570;28;20911;-74
2022/06/12 06:17:30;;;;;;;1.70;1.60;;;;;;;;;;5093649;28;20445;-74
2022/06/12 06:19:57;;;;;;;4.00;1.97;;;;;;;;;;5093610;28;20478;-74
2022/06/12 06:22:25;;;;;;;2.30;2.10;;;;;;;;;;5093547;28;20449;-74
2022/06/12 06:24:52;;;;;;;3.50;2.60;;;;;;;;;;5093529;28;20442;-74
2022/06/12 06:27:19;;;;;;;2.40;2.20;;;;;;;;;;5093641;28;20457;-74
2022/06/12 06:29:46;;;;;;;3.10;1.97;;;;;;;;;;5093555;28;20448;-74
2022/06/12 06:32:13;;;;;;;2.60;2.20;;;;;;;;;;5093396;28;20466;-74
2022/06/12 06:34:42;;;;;;;3.50;1.87;;;;;;;;;;5093468;28;20452;-74
2022/06/12 06:37:10;;;;;;;2.10;1.90;;;;;;;;;;5093462;28;20853;-74
2022/06/12 06:39:38;;;;;;;2.23;2.03;;;;;;;;;;5093472;28;20469;-74
2022/06/12 06:42:06;;;;;;;2.47;2.20;;;;;;;;;;5093186;28;20519;-74
2022/06/12 06:47:18;;;;;;;2.60;2.20;;;;;;;;;;5093187;28;20421;-71
2022/06/12 06:49:47;;;;;;;3.30;1.70;;;;;;;;;;5093243;28;20450;-71
2022/06/12 06:52:14;;;;;;;2.23;2.03;;;;;;;;;;5092559;28;20473;-71
2022/06/12 06:54:41;;;;;;;2.30;2.10;;;;;;;;;;5093151;28;20442;-71
2022/06/12 06:57:09;;;;;;;2.13;1.93;;;;;;;;;;5092995;28;20453;-71
2022/06/12 06:59:36;;;;;;;3.00;2.30;;;;;;;;;;5093235;28;20795;-71
2022/06/12 07:02:03;;;;;;;2.43;2.23;;;;;;;;;;5092852;28;20490;-72
2022/06/12 07:04:30;;;;;;;4.13;2.63;;;;;;;;;;5092838;28;20955;-71
2022/06/12 07:06:59;;;;;;;2.33;1.80;;;;;;;;;;5092931;28;20446;-71
2022/06/12 07:09:26;;;;;;;2.23;1.80;;;;;;;;;;5092904;28;20811;-71
2022/06/12 07:11:53;;;;;;;2.20;2.00;;;;;;;;;;5093341;28;20235;-71
2022/06/12 07:14:20;;;;;;;1.93;1.73;;;;;;;;;;5092715;28;20665;-72
2022/06/12 07:16:47;;;;;;;2.27;2.07;;;;;;;;;;5093213;28;20214;-72
2022/06/12 07:19:14;;;;;;;2.03;1.93;;;;;;;;;;5092981;28;20661;-71
2022/06/12 07:21:42;;;;;;;2.33;2.07;;;;;;;;;;5093681;28;20668;-71
2022/06/12 07:24:11;;;;;;;3.60;2.83;;;;;;;;;;5096861;28;20203;-71
2022/06/12 07:26:40;;;;;;;5.80;2.30;;;;;;;;;;5097123;28;20257;-71
2022/06/12 07:29:07;;;;;;;3.17;2.70;;;;;;;;;;5096831;28;20212;-71
2022/06/12 07:31:34;;;;;;;2.60;2.10;;;;;;;;;;5096736;28;20469;-71
2022/06/12 07:34:02;;;;;;;3.10;2.20;;;;;;;;;;5096614;28;20961;-72
2022/06/12 07:36:30;;;;;;;2.40;2.20;;;;;;;;;;5096690;28;20786;-71
2022/06/12 07:38:57;;;;;;;2.17;1.97;;;;;;;;;;5096603;28;20454;-71
2022/06/12 07:41:26;;;;;;;2.33;2.13;;;;;;;;;;5096512;28;20489;-71
2022/06/12 07:43:53;;;;;;;2.30;2.10;;;;;;;;;;5096640;28;20492;-72
2022/06/12 07:46:21;;;;;;;2.30;2.10;;;;;;;;;;5096624;28;20227;-71
2022/06/12 07:48:50;;;;;;;2.23;2.03;;;;;;;;;;5096565;28;20220;-71
2022/06/12 07:51:18;;;;;;;2.33;2.13;;;;;;;;;;5096550;28;20232;-71
2022/06/12 07:53:46;;;;;;;3.80;2.40;;;;;;;;;;5096326;28;20208;-72
2022/06/12 07:56:14;;;;;;;2.17;1.97;;;;;;;;;;5096356;28;20219;-72
2022/06/12 07:58:43;;;;;;;2.27;2.07;;;;;;;;;;5096595;28;20598;-71
2022/06/12 08:01:12;;;;;;;2.33;1.90;;;;;;;;;;5096254;28;20232;-71
2022/06/12 08:03:39;;;;;;;4.23;2.13;;;;;;;;;;5096228;28;20583;-72
2022/06/12 08:06:06;;;;;;;2.77;2.33;;;;;;;;;;5096369;28;20450;-71
2022/06/12 08:08:34;;;;;;;2.93;2.03;;;;;;;;;;5096121;28;20456;-71
2022/06/12 08:11:01;;;;;;;4.00;2.20;;;;;;;;;;5096200;28;20232;-71
2022/06/12 08:13:29;;;;;;;3.37;3.07;;;;;;;;;;5096088;28;20666;-72
2022/06/12 08:15:58;;;;;;;5.23;2.20;;;;;;;;;;5096112;28;20207;-71
2022/06/12 08:18:25;;;;;;;2.50;2.30;;;;;;;;;;5096081;28;20208;-71
2022/06/12 08:20:54;;;;;;;2.37;2.17;;;;;;;;;;5096036;28;20239;-71
2022/06/12 08:23:30;;;;;;;3.53;2.57;;;;;;;;;;5096043;28;20212;-71
2022/06/12 08:26:00;;;;;;;4.30;2.30;;;;;;;;;;5095941;28;20449;-72
2022/06/12 08:28:28;;;;;;;3.23;1.63;;;;;;;;;;5096360;28;20445;-72
2022/06/12 08:30:57;;;;;;;2.70;1.77;;;;;;;;;;5095721;28;20473;-71
2022/06/12 08:33:25;;;;;;;2.10;1.90;;;;;;;;;;5094974;28;20446;-72
2022/06/12 08:35:52;;;;;;;2.20;2.00;;;;;;;;;;5095635;28;20207;-72
2022/06/12 08:38:20;;;;;;;2.40;2.20;;;;;;;;;;5095731;28;20208;-71
2022/06/12 08:40:51;;;;;;;2.30;2.10;;;;;;;;;;5095499;28;20482;-71
2022/06/12 08:43:23;;;;;;;3.13;2.10;;;;;;;;;;5095558;28;20450;-71
2022/06/12 08:45:51;;;;;;;4.23;2.50;;;;;;;;;;5095379;28;20450;-72
2022/06/12 08:48:24;;;;;;;5.93;3.13;;;;;;;;;;5095252;28;20466;-71
2022/06/12 08:50:56;;;;;;;2.70;2.50;;;;;;;;;;5095458;28;20470;-71
2022/06/12 08:53:26;;;;;;;2.57;2.37;;;;;;;;;;5095003;28;20812;-71
2022/06/12 08:55:55;;;;;;;2.90;2.10;;;;;;;;;;5095552;28;20822;-71
2022/06/12 08:58:27;;;;;;;2.40;2.20;;;;;;;;;;5095405;28;20814;-71
2022/06/12 09:00:54;;;;;;;2.40;2.17;;;;;;;;;;5095294;28;20494;-71
2022/06/12 09:03:25;;;;;;;2.60;2.40;;;;;;;;;;5095191;28;20821;-72
2022/06/12 09:05:53;;;;;;;3.13;2.20;;;;;;;;;;5095159;28;20468;-71
2022/06/12 09:08:26;;;;;;;3.50;2.10;;;;;;;;;;5095074;28;20450;-71
2022/06/12 09:10:57;;;;;;;2.27;2.07;;;;;;;;;;5095133;28;20967;-71
2022/06/12 09:13:28;;;;;;;2.40;2.10;;;;;;;;;;5094827;28;20886;-71
2022/06/12 09:16:01;;;;;;;2.40;2.20;;;;;;;;;;5094877;28;20454;-71
2022/06/12 09:18:34;;;;;;;4.30;2.57;;;;;;;;;;5094994;28;20454;-71
2022/06/12 09:21:05;;;;;;;2.67;2.47;;;;;;;;;;5094936;28;20497;-71
2022/06/12 09:23:36;;;;;;;2.37;2.17;;;;;;;;;;5094726;28;20456;-71
2022/06/12 09:26:09;;;;;;;2.63;2.43;;;;;;;;;;5094611;28;20454;-71
2022/06/12 09:28:39;;;;;;;2.10;2.00;;;;;;;;;;5094913;28;20450;-71
2022/06/12 09:31:08;;;;;;;2.50;1.80;;;;;;;;;;5094493;28;20469;-71
2022/06/12 09:33:44;;;;;;;2.20;2.00;;;;;;;;;;5094410;28;20446;-71
2022/06/12 09:36:15;;;;;;;2.33;1.93;;;;;;;;;;5094497;28;20438;-71
2022/06/12 09:38:51;;;;;;;2.10;1.90;;;;;;;;;;5094496;28;20453;-71
2022/06/12 09:41:22;;;;;;;3.00;1.80;;;;;;;;;;5094287;28;20477;-71
2022/06/12 09:43:54;;;;;;;4.47;2.10;;;;;;;;;;5094261;28;20549;-72
2022/06/12 09:46:37;;;;;;;2.80;2.60;;;;;;;;;;5094226;28;20951;-71
2022/06/12 09:49:12;;;;;;;5.13;2.30;;;;;;;;;;5094145;28;20831;-71
2022/06/12 09:51:55;;;;;;;2.97;2.40;;;;;;;;;;5093769;28;20463;-71
2022/06/12 09:54:41;;;;;;;3.00;2.50;;;;;;;;;;5093947;28;20453;-71
2022/06/12 09:57:12;;;;;;;2.80;1.93;;;;;;;;;;5094136;28;20850;-71
2022/06/12 09:59:43;;;;;;;3.83;2.20;;;;;;;;;;5094260;28;20508;-71
2022/06/12 10:02:13;;;;;;;2.23;1.70;;;;;;;;;;5093931;28;20490;-71
2022/06/12 10:04:43;;;;;;;1.93;1.73;;;;;;;;;;5093754;28;20465;-71
2022/06/12 10:07:12;;;;;;;2.67;1.80;;;;;;;;;;5093845;28;20450;-71
2022/06/12 10:09:42;;;;;;;2.37;2.03;;;;;;;;;;5093814;28;20456;-71
2022/06/12 10:12:12;;;;;;;2.53;2.33;;;;;;;;;;5093819;28;20461;-71
2022/06/12 10:14:42;;;;;;;3.60;2.40;;;;;;;;;;5093690;28;20931;-71
2022/06/12 10:17:13;;;;;;;3.43;2.10;;;;;;;;;;5093670;28;20450;-71
2022/06/12 10:19:46;;;;;;;2.67;2.17;;;;;;;;;;5093769;28;20448;-71
2022/06/12 10:22:16;;;;;;;1.80;1.70;;;;;;;;;;5093604;28;20510;-71
2022/06/12 10:24:43;;;;;;;2.97;2.67;;;;;;;;;;5093395;28;20452;-71
2022/06/12 10:27:12;;;;;;;2.40;2.10;;;;;;;;;;5093457;28;20454;-71
2022/06/12 10:29:45;;;;;;;2.30;2.03;;;;;;;;;;5093592;28;20454;-71
2022/06/12 10:32:15;;;;;;;2.27;2.07;;;;;;;;;;5093178;28;20473;-71
2022/06/12 10:34:43;;;;;;;2.30;2.10;;;;;;;;;;5093137;28;20552;-72
2022/06/12 10:37:12;;;;;;;6.27;2.10;;;;;;;;;;5093334;28;20458;-71
2022/06/12 10:39:40;;;;;;;2.30;2.10;;;;;;;;;;5093529;28;20438;-72
2022/06/12 10:42:08;;;;;;;2.90;2.20;;;;;;;;;;5093108;28;20864;-71
2022/06/12 10:44:38;;;;;;;2.20;2.00;;;;;;;;;;5093149;28;20449;-72
2022/06/12 10:47:09;;;;;;;3.53;1.87;;;;;;;;;;5093215;28;20445;-71
2022/06/12 10:49:36;;;;;;;3.10;2.10;;;;;;;;;;5093169;28;20927;-71
2022/06/12 10:52:07;;;;;;;3.40;2.30;;;;;;;;;;5092654;28;20469;-72
2022/06/12 10:54:34;;;;;;;2.73;2.10;;;;;;;;;;5093010;28;20970;-72
2022/06/12 10:57:08;;;;;;;3.17;2.20;;;;;;;;;;5092577;28;20445;-72
2022/06/12 10:59:36;;;;;;;3.37;2.17;;;;;;;;;;5093300;28;20458;-72
2022/06/12 11:02:24;;;;;;;2.23;1.90;;;;;;;;;;5092987;28;20500;-72
2022/06/12 11:04:59;;;;;;;1.77;1.50;;;;;;;;;;5088037;28;20450;-72
2022/06/12 11:07:32;;;;;;;2.33;1.73;;;;;;;;;;5093197;28;20438;-72
2022/06/12 11:10:14;;;;;;;2.27;1.70;;;;;;;;;;5093011;28;20456;-72
2022/06/12 11:12:46;;;;;;;2.67;1.87;;;;;;;;;;5093229;28;20449;-72
2022/06/12 11:15:19;;;;;;;2.93;1.73;;;;;;;;;;5092835;28;20813;-72
2022/06/12 11:17:52;;;;;;;2.60;1.60;;;;;;;;;;5093228;28;20450;-72
2022/06/12 11:20:25;;;;;;;2.47;1.87;;;;;;;;;;5092803;28;20474;-72
2022/06/12 11:22:59;;;;;;;2.30;2.10;;;;;;;;;;5093193;28;20577;-72
2022/06/12 11:25:34;;;;;;;3.57;1.67;;;;;;;;;;5092711;28;20924;-72
2022/06/12 11:28:10;;;;;;;2.17;2.00;;;;;;;;;;5092868;28;20545;-72
2022/06/12 11:30:47;;;;;;;3.63;1.53;;;;;;;;;;5092954;28;20957;-72
2022/06/12 11:33:27;;;;;;;2.87;1.90;;;;;;;;;;5092939;28;20475;-72
2022/06/12 11:35:58;;;;;;;2.30;1.70;;;;;;;;;;5092864;28;20497;-72
2022/06/12 11:38:41;;;;;;;2.47;1.50;;;;;;;;;;5092859;28;20454;-72
2022/06/12 11:41:13;;;;;;;1.80;1.47;;;;;;;;;;5092742;28;20474;-72
2022/06/12 11:43:40;;;;;;;2.53;1.80;;;;;;;;;;5092761;28;20445;-73
2022/06/12 11:46:16;;;;;;;1.90;1.30;;;;;;;;;;5092730;28;20453;-72
2022/06/12 11:48:53;;;;;;;1.80;1.70;;;;;;;;;;5092870;28;20453;-72
2022/06/12 11:51:24;;;;;;;3.33;1.40;;;;;;;;;;5092482;28;20838;-73
2022/06/12 11:53:59;;;;;;;3.50;1.57;;;;;;;;;;5092572;28;20449;-72
2022/06/12 11:56:33;;;;;;;3.07;2.00;;;;;;;;;;5092830;28;20442;-74
2022/06/12 11:59:06;;;;;;;2.10;1.70;;;;;;;;;;5092711;28;20454;-74
2022/06/12 12:01:39;;;;;;;1.60;1.47;;;;;;;;;;5092954;28;20478;-74
2022/06/12 12:04:24;;;;;;;3.13;1.80;;;;;;;;;;5092487;28;20454;-75
2022/06/12 12:06:58;;;;;;;2.57;1.73;;;;;;;;;;5092591;28;20458;-74
2022/06/12 12:09:31;;;;;;;2.20;1.73;;;;;;;;;;5094549;28;20454;-74
2022/06/12 12:12:01;;;;;;;3.50;1.63;;;;;;;;;;5096206;28;20471;-74
2022/06/12 12:14:29;;;;;;;1.90;1.70;;;;;;;;;;5095904;28;20458;-74
2022/06/12 12:16:58;;;;;;;2.20;1.87;;;;;;;;;;5096234;28;20450;-74
2022/06/12 12:19:27;;;;;;;3.03;1.90;;;;;;;;;;5096144;28;20507;-74
2022/06/12 12:21:57;;;;;;;2.13;1.60;;;;;;;;;;5095896;28;20483;-74
2022/06/12 12:24:26;;;;;;;4.77;2.30;;;;;;;;;;5095809;28;20446;-74
2022/06/12 12:26:58;;;;;;;2.63;1.70;;;;;;;;;;5095918;28;20474;-74
2022/06/12 12:29:33;;;;;;;3.23;2.37;;;;;;;;;;5095889;28;20462;-74
2022/06/12 12:32:02;;;;;;;2.63;1.60;;;;;;;;;;5095750;28;20470;-74
2022/06/12 12:34:30;;;;;;;1.87;1.70;;;;;;;;;;5095663;28;20455;-74
2022/06/12 12:42:31;;;;;;;2.70;2.10;;;;;;;;;;5095961;28;20473;-74
2022/06/12 12:45:11;;;;;;;2.30;1.90;;;;;;;;;;5095477;28;20469;-74
2022/06/12 12:47:38;;;;;;;2.30;2.10;;;;;;;;;;5095324;28;20469;-74
2022/06/12 12:50:06;;;;;;;2.90;2.07;;;;;;;;;;5095384;28;20454;-74
2022/06/12 12:52:41;;;;;;;2.63;2.43;;;;;;;;;;5094888;28;20533;-74
2022/06/12 12:55:18;;;;;;;2.10;1.80;;;;;;;;;;5095170;28;20879;-74
2022/06/12 12:57:47;;;;;;;1.97;1.77;;;;;;;;;;5095484;28;20450;-74
2022/06/12 13:00:22;;;;;;;3.90;3.60;;;;;;;;;;5095020;28;20991;-74
2022/06/12 13:02:54;;;;;;;3.70;3.40;;;;;;;;;;5095201;28;20864;-74
2022/06/12 13:05:22;;;;;;;2.67;2.00;;;;;;;;;;5094835;28;20465;-74
2022/06/12 13:07:53;;;;;;;1.90;1.70;;;;;;;;;;5094928;28;20459;-74
2022/06/12 13:10:31;;;;;;;3.43;2.20;;;;;;;;;;5095073;28;20502;-74
2022/06/12 13:13:13;;;;;;;2.47;1.60;;;;;;;;;;5095243;28;20454;-74
2022/06/12 13:15:45;;;;;;;2.37;1.97;;;;;;;;;;5081661;28;20451;-74
2022/06/12 13:18:18;;;;;;;2.43;1.90;;;;;;;;;;5095035;28;20472;-74
2022/06/12 13:20:50;;;;;;;3.10;2.27;;;;;;;;;;5094557;28;20474;-74
2022/06/12 13:23:23;;;;;;;3.40;1.97;;;;;;;;;;5094721;28;20509;-74
2022/06/12 13:25:53;;;;;;;2.00;1.60;;;;;;;;;;5094692;28;20466;-74
2022/06/12 13:28:22;;;;;;;1.87;1.50;;;;;;;;;;5094825;28;20522;-74
2022/06/12 13:30:50;;;;;;;2.60;1.83;;;;;;;;;;5094691;28;20475;-74
2022/06/12 13:33:20;;;;;;;4.10;1.87;;;;;;;;;;5094607;28;20446;-74
2022/06/12 13:35:49;;;;;;;3.77;2.03;;;;;;;;;;5094522;28;20454;-74
2022/06/12 13:38:19;;;;;;;2.80;1.73;;;;;;;;;;5094759;28;20790;-74
2022/06/12 13:40:52;;;;;;;2.03;1.83;;;;;;;;;;5094775;28;20463;-74
2022/06/12 13:43:21;;;;;;;2.37;2.17;;;;;;;;;;5094344;28;20501;-74
2022/06/12 13:45:54;;;;;;;2.73;2.17;;;;;;;;;;5094373;28;20496;-74
2022/06/12 13:48:22;;;;;;;6.57;5.23;;;;;;;;;;5094208;28;20473;-74
2022/06/12 13:50:52;;;;;;;2.40;2.00;;;;;;;;;;5094385;28;20470;-74
2022/06/12 13:53:20;;;;;;;2.50;1.97;;;;;;;;;;5093641;28;20455;-74
2022/06/12 13:55:51;;;;;;;3.90;2.37;;;;;;;;;;5094140;28;20454;-74
2022/06/12 13:58:20;;;;;;;2.47;2.23;;;;;;;;;;5094104;28;20480;-74
2022/06/12 14:00:48;;;;;;;3.23;2.13;;;;;;;;;;5094152;28;20842;-74
2022/06/12 14:03:21;;;;;;;2.20;2.00;;;;;;;;;;5094079;28;20486;-74
2022/06/12 14:05:51;;;;;;;4.57;2.30;;;;;;;;;;5093972;28;20465;-74
2022/06/12 14:08:18;;;;;;;2.00;1.80;;;;;;;;;;5094077;28;20443;-74
2022/06/12 14:10:48;;;;;;;4.60;2.83;;;;;;;;;;5093967;28;20467;-74
2022/06/12 14:13:18;;;;;;;2.90;2.10;;;;;;;;;;5093940;28;20796;-74
2022/06/12 14:15:46;;;;;;;2.70;1.80;;;;;;;;;;5093698;28;20454;-74
2022/06/12 14:18:25;;;;;;;3.03;1.80;;;;;;;;;;5093759;28;20446;-74
2022/06/12 14:21:00;;;;;;;6.40;4.43;;;;;;;;;;5093758;28;20968;-74
2022/06/12 14:23:28;;;;;;;2.00;1.80;;;;;;;;;;5093479;28;20535;-74
2022/06/12 14:25:59;;;;;;;4.00;1.90;;;;;;;;;;5093729;28;20462;-73
2022/06/12 14:28:28;;;;;;;2.87;2.07;;;;;;;;;;5093556;28;20450;-74
2022/06/12 14:31:03;;;;;;;10.27;8.50;;;;;;;;;;5093181;28;20822;-74
2022/06/12 14:33:34;;;;;;;4.67;3.40;;;;;;;;;;5093232;28;20788;-74
2022/06/12 14:36:01;;;;;;;4.10;2.67;;;;;;;;;;5093613;28;20450;-74
2022/06/12 14:38:29;;;;;;;2.47;2.07;;;;;;;;;;5093349;28;20955;-74
2022/06/12 14:40:57;;;;;;;1.73;1.33;;;;;;;;;;5093359;28;20471;-74
2022/06/12 14:43:27;;;;;;;1.90;1.60;;;;;;;;;;5093376;28;20489;-74
2022/06/12 14:45:55;;;;;;;1.90;1.70;;;;;;;;;;5093433;28;20827;-74
2022/06/12 14:48:24;;;;;;;4.33;1.80;;;;;;;;;;5093068;28;20828;-74
2022/06/12 14:50:53;;;;;;;15.70;2.57;;;;;;;;;;5093196;28;20473;-74
2022/06/12 14:53:20;;;;;;;2.13;1.93;;;;;;;;;;5092799;28;20816;-74
2022/06/12 14:55:48;;;;;;;3.10;1.73;;;;;;;;;;5093223;28;20445;-73
2022/06/12 14:58:17;;;;;;;1.70;1.57;;;;;;;;;;5093318;28;20457;-74
2022/06/12 15:00:44;;;;;;;3.80;1.87;;;;;;;;;;5093219;28;20565;-74
2022/06/12 15:03:14;;;;;;;1.77;1.67;;;;;;;;;;5092965;28;20569;-74
2022/06/12 15:05:41;;;;;;;2.27;1.60;;;;;;;;;;5093125;28;20459;-74
2022/06/12 15:08:10;;;;;;;2.40;1.53;;;;;;;;;;5093225;28;20458;-74
2022/06/12 15:10:38;;;;;;;2.10;1.90;;;;;;;;;;5093385;28;20471;-74
2022/06/12 15:13:06;;;;;;;9.53;5.20;;;;;;;;;;5093177;28;20464;-74
2022/06/12 15:15:34;;;;;;;6.20;1.90;;;;;;;;;;5092978;28;20453;-74
2022/06/12 15:18:02;;;;;;;2.10;1.90;;;;;;;;;;5093141;28;20465;-74